Time;durP1;ratioP1;P1;durP2;ratioP2;P2;SDS_P1;SDS_P2;PMS_P1;PMS_P2;Temp;Humidity;BMP_temperature;BMP_pressure;BME280_temperature;BME280_humidity;BME280_pressure;Samples;Min_cycle;Max_cycle;Signal;HPM_P1;HPM_P2
2021/09/19 00:01:41;;;;;;;5.70;5.10;;;14.90;60.20;;;;;;5013664;28;20385;-74
2021/09/19 00:04:07;;;;;;;5.80;5.20;;;14.70;63.50;;;;;;5013386;28;20427;-74
2021/09/19 00:06:32;;;;;;;5.90;4.80;;;14.90;60.90;;;;;;4993951;28;20399;-74
2021/09/19 00:08:58;;;;;;;6.93;5.70;;;15.00;60.20;;;;;;4994223;28;20405;-77
2021/09/19 00:11:23;;;;;;;8.82;5.65;;;15.10;59.50;;;;;;4995353;28;20395;-77
2021/09/19 00:13:49;;;;;;;6.17;5.47;;;14.80;61.40;;;;;;4995318;28;20967;-76
2021/09/19 00:16:15;;;;;;;7.40;5.60;;;14.60;63.30;;;;;;4994504;28;20398;-77
2021/09/19 00:18:40;;;;;;;6.97;5.28;;;14.40;66.90;;;;;;4997935;28;20419;-75
2021/09/19 00:21:06;;;;;;;6.30;5.70;;;14.30;70.10;;;;;;5005387;28;20383;-75
2021/09/19 00:23:32;;;;;;;6.00;5.07;;;14.40;68.90;;;;;;5032880;28;20391;-75
2021/09/19 00:25:57;;;;;;;7.20;5.23;;;14.60;66.90;;;;;;5033320;28;20419;-76
2021/09/19 00:28:23;;;;;;;5.60;4.73;;;14.70;65.60;;;;;;5032986;28;20799;-76
2021/09/19 00:30:48;;;;;;;6.60;5.03;;;14.90;61.70;;;;;;5026477;28;20468;-76
2021/09/19 00:33:14;;;;;;;6.18;5.13;;;14.90;61.90;;;;;;5004477;28;20497;-76
2021/09/19 00:35:40;;;;;;;7.20;5.07;;;14.80;61.90;;;;;;4995859;28;20410;-77
2021/09/19 00:38:05;;;;;;;7.15;5.00;;;14.80;61.30;;;;;;4994028;28;20418;-76
2021/09/19 00:40:31;;;;;;;5.60;4.67;;;14.90;61.00;;;;;;4994082;28;20811;-76
2021/09/19 00:42:57;;;;;;;6.45;4.78;;;14.80;62.50;;;;;;5010585;28;20530;-77
2021/09/19 00:45:23;;;;;;;6.55;4.70;;;14.70;64.00;;;;;;5004134;28;20434;-77
2021/09/19 00:47:51;;;;;;;5.32;4.82;;;14.40;66.00;;;;;;5004874;28;20987;-76
2021/09/19 00:50:20;;;;;;;6.60;5.00;;;14.40;68.10;;;;;;5012327;28;20909;-76
2021/09/19 00:52:47;;;;;;;8.23;4.90;;;14.50;67.50;;;;;;5012474;28;20723;-76
2021/09/19 00:55:14;;;;;;;7.50;4.70;;;14.60;65.40;;;;;;5012314;28;20404;-76
2021/09/19 00:57:46;;;;;;;7.03;5.07;;;14.40;66.70;;;;;;4998742;28;20888;-76
2021/09/19 01:00:14;;;;;;;8.10;5.25;;;14.40;66.90;;;;;;4992481;28;20390;-76
2021/09/19 01:02:41;;;;;;;10.38;5.22;;;14.10;70.50;;;;;;4992636;28;20410;-77
2021/09/19 01:05:08;;;;;;;8.93;4.82;;;14.10;73.10;;;;;;4991653;28;20437;-76
2021/09/19 01:07:34;;;;;;;7.60;4.80;;;14.10;71.40;;;;;;4992508;28;20418;-76
2021/09/19 01:10:00;;;;;;;6.53;5.27;;;14.00;74.00;;;;;;4991581;28;20418;-77
2021/09/19 01:12:25;;;;;;;6.20;4.80;;;13.90;75.20;;;;;;4992647;28;20445;-76
2021/09/19 01:14:52;;;;;;;7.30;4.43;;;14.00;74.80;;;;;;4993084;28;20812;-76
2021/09/19 01:17:18;;;;;;;4.78;4.32;;;14.30;70.20;;;;;;4992977;28;20477;-76
2021/09/19 01:19:46;;;;;;;7.32;4.43;;;14.40;68.40;;;;;;4992201;28;20705;-76
2021/09/19 01:22:13;;;;;;;5.15;4.68;;;14.20;69.50;;;;;;5022099;28;20395;-76
2021/09/19 01:24:39;;;;;;;7.10;4.70;;;14.10;71.40;;;;;;5030528;28;20391;-76
2021/09/19 01:27:05;;;;;;;6.28;5.10;;;13.90;74.90;;;;;;5031280;28;20387;-76
2021/09/19 01:29:32;;;;;;;5.40;4.90;;;14.00;77.00;;;;;;5031032;28;20383;-75
2021/09/19 01:31:57;;;;;;;5.85;5.13;;;13.90;77.80;;;;;;5014585;28;20397;-76
2021/09/19 01:34:24;;;;;;;9.60;5.00;;;13.80;78.50;;;;;;5011436;28;20913;-76
2021/09/19 01:36:50;;;;;;;6.00;5.30;;;13.80;80.60;;;;;;5011518;28;20389;-76
2021/09/19 01:39:15;;;;;;;5.72;4.60;;;13.80;82.20;;;;;;5011128;28;20388;-76
2021/09/19 01:41:41;;;;;;;6.40;5.10;;;13.90;78.70;;;;;;5006906;28;20409;-76
2021/09/19 01:44:08;;;;;;;5.60;5.00;;;13.90;79.20;;;;;;4993794;28;20468;-76
2021/09/19 01:46:35;;;;;;;5.75;5.20;;;13.80;80.30;;;;;;5014499;28;20396;-76
2021/09/19 01:49:01;;;;;;;7.45;4.80;;;13.80;80.90;;;;;;5014792;28;20874;-77
2021/09/19 01:51:27;;;;;;;6.60;4.60;;;13.90;78.60;;;;;;5017197;28;20554;-76
2021/09/19 01:53:53;;;;;;;5.30;4.80;;;14.20;73.90;;;;;;5017054;28;20408;-76
2021/09/19 01:56:24;;;;;;;7.63;4.78;;;14.10;73.10;;;;;;5015303;28;20404;-76
2021/09/19 01:58:53;;;;;;;4.60;4.10;;;14.30;71.80;;;;;;5014223;28;20881;-76
2021/09/19 02:01:22;;;;;;;8.98;4.75;;;14.20;72.50;;;;;;4996614;28;20475;-76
2021/09/19 02:03:52;;;;;;;5.32;4.65;;;14.20;73.60;;;;;;4996021;28;20477;-76
2021/09/19 02:06:18;;;;;;;5.97;5.38;;;14.10;74.60;;;;;;4995930;28;20398;-76
2021/09/19 02:08:45;;;;;;;8.88;4.90;;;14.00;77.60;;;;;;5000384;28;20400;-77
2021/09/19 02:11:12;;;;;;;7.25;5.13;;;13.80;78.50;;;;;;5010989;28;20388;-77
2021/09/19 02:13:40;;;;;;;5.80;5.10;;;13.60;80.40;;;;;;5010980;28;20472;-77
2021/09/19 02:16:07;;;;;;;6.30;4.87;;;13.50;85.30;;;;;;5010840;28;20380;-75
2021/09/19 02:18:33;;;;;;;4.97;4.30;;;13.60;85.10;;;;;;5010692;28;20820;-76
2021/09/19 02:21:00;;;;;;;7.57;4.80;;;13.70;80.10;;;;;;5015026;28;20419;-76
2021/09/19 02:23:26;;;;;;;12.40;5.50;;;13.50;81.40;;;;;;5030723;28;20421;-76
2021/09/19 02:25:52;;;;;;;5.75;4.60;;;13.30;84.70;;;;;;5030860;28;20382;-76
2021/09/19 02:28:19;;;;;;;5.13;4.65;;;13.30;89.10;;;;;;5030197;28;20402;-76
2021/09/19 02:30:45;;;;;;;5.90;5.30;;;13.50;84.30;;;;;;5000811;28;20393;-76
2021/09/19 02:33:11;;;;;;;9.70;5.40;;;13.70;79.50;;;;;;5011129;28;20391;-76
2021/09/19 02:35:36;;;;;;;7.57;5.20;;;13.60;78.70;;;;;;5010683;28;20415;-76
2021/09/19 02:38:02;;;;;;;8.20;5.32;;;13.30;81.90;;;;;;5010174;28;20393;-76
2021/09/19 02:40:28;;;;;;;6.50;4.90;;;13.20;87.10;;;;;;5010748;28;20392;-76
2021/09/19 02:42:54;;;;;;;5.63;5.03;;;13.30;84.90;;;;;;5010670;28;20385;-76
2021/09/19 02:45:20;;;;;;;5.43;4.73;;;13.30;83.30;;;;;;5010758;28;20724;-76
2021/09/19 02:47:46;;;;;;;8.00;5.55;;;13.10;84.90;;;;;;5010280;28;20397;-76
2021/09/19 02:50:18;;;;;;;8.85;4.85;;;12.90;88.20;;;;;;5002677;28;20742;-77
2021/09/19 02:52:44;;;;;;;8.90;5.50;;;12.90;92.50;;;;;;4992514;28;20394;-76
2021/09/19 02:55:10;;;;;;;9.32;4.97;;;12.90;92.60;;;;;;4991758;28;20418;-77
2021/09/19 02:57:37;;;;;;;5.30;4.90;;;12.80;91.40;;;;;;4999907;28;20400;-77
2021/09/19 03:00:05;;;;;;;6.82;5.60;;;12.80;93.00;;;;;;5011041;28;20403;-77
2021/09/19 03:02:30;;;;;;;5.57;5.00;;;12.90;91.00;;;;;;5012238;28;20870;-76
2021/09/19 03:04:56;;;;;;;9.05;5.10;;;12.70;92.10;;;;;;5010968;28;20399;-76
2021/09/19 03:07:22;;;;;;;5.97;5.33;;;12.80;93.60;;;;;;5010500;28;20435;-76
2021/09/19 03:09:47;;;;;;;9.97;5.40;;;13.10;87.00;;;;;;4999971;28;20398;-76
2021/09/19 03:12:13;;;;;;;5.93;5.00;;;13.10;85.40;;;;;;4991153;28;20777;-76
2021/09/19 03:14:38;;;;;;;7.18;5.45;;;13.10;84.10;;;;;;4990064;28;20413;-78
2021/09/19 03:17:04;;;;;;;5.05;4.65;;;13.10;82.90;;;;;;4991396;28;20390;-77
2021/09/19 03:19:29;;;;;;;5.20;4.60;;;13.10;85.00;;;;;;4991845;28;20387;-77
2021/09/19 03:21:55;;;;;;;6.97;4.55;;;12.90;85.70;;;;;;5008129;28;20401;-77
2021/09/19 03:24:20;;;;;;;5.87;5.27;;;12.80;87.90;;;;;;5015515;28;20397;-76
2021/09/19 03:26:46;;;;;;;6.27;5.17;;;12.80;89.80;;;;;;5016117;28;20420;-77
2021/09/19 03:29:12;;;;;;;6.70;5.20;;;12.90;87.10;;;;;;5013636;28;20403;-76
2021/09/19 03:31:37;;;;;;;6.47;5.50;;;12.70;88.10;;;;;;5015150;28;20384;-76
2021/09/19 03:34:03;;;;;;;5.50;4.90;;;12.70;92.10;;;;;;5013557;28;20724;-76
2021/09/19 03:36:28;;;;;;;7.53;5.00;;;12.80;87.80;;;;;;4996921;28;20386;-76
2021/09/19 03:38:54;;;;;;;5.00;4.60;;;12.90;85.50;;;;;;5002698;28;20417;-77
2021/09/19 03:41:20;;;;;;;6.65;5.45;;;12.80;85.50;;;;;;5006279;28;20395;-76
2021/09/19 03:43:46;;;;;;;5.78;5.18;;;12.80;86.70;;;;;;5022390;28;20404;-77
2021/09/19 03:46:11;;;;;;;6.43;4.32;;;12.80;85.10;;;;;;5016985;28;20406;-77
2021/09/19 03:48:37;;;;;;;7.50;4.60;;;12.90;85.30;;;;;;5015697;28;20898;-77
2021/09/19 03:51:02;;;;;;;5.43;4.90;;;12.80;84.40;;;;;;5017538;28;20495;-77
2021/09/19 03:53:28;;;;;;;6.10;5.40;;;12.70;86.60;;;;;;5018728;28;20395;-78
2021/09/19 03:55:54;;;;;;;6.35;4.80;;;12.80;85.30;;;;;;5017117;28;20392;-77
2021/09/19 03:58:19;;;;;;;6.53;5.25;;;12.90;82.80;;;;;;5017832;28;20454;-78
2021/09/19 04:00:45;;;;;;;5.50;4.80;;;12.70;84.70;;;;;;5014766;28;20412;-75
2021/09/19 04:03:10;;;;;;;9.50;4.83;;;12.70;87.00;;;;;;5013508;28;20416;-75
2021/09/19 04:05:36;;;;;;;5.47;4.73;;;12.80;84.30;;;;;;5013380;28;20389;-74
2021/09/19 04:08:03;;;;;;;7.03;4.80;;;12.70;85.60;;;;;;5012786;28;20396;-74
2021/09/19 04:10:29;;;;;;;6.88;4.30;;;12.60;88.50;;;;;;5005756;28;20398;-75
2021/09/19 04:12:55;;;;;;;7.10;4.35;;;12.70;86.60;;;;;;4993731;28;20392;-76
2021/09/19 04:15:20;;;;;;;7.00;4.20;;;12.80;83.90;;;;;;4993431;28;20438;-75
2021/09/19 04:17:46;;;;;;;6.10;4.20;;;12.90;81.80;;;;;;4993200;28;20386;-75
2021/09/19 04:20:12;;;;;;;5.15;3.80;;;12.80;83.30;;;;;;4993751;28;20386;-74
2021/09/19 04:22:38;;;;;;;5.63;4.30;;;12.70;84.40;;;;;;5011921;28;20420;-75
2021/09/19 04:25:05;;;;;;;7.35;3.95;;;12.70;84.30;;;;;;4994265;28;20394;-74
2021/09/19 04:27:30;;;;;;;9.40;4.20;;;12.70;82.60;;;;;;4993577;28;20476;-75
2021/09/19 04:29:56;;;;;;;5.22;4.07;;;12.70;82.30;;;;;;4993596;28;20821;-74
2021/09/19 04:32:22;;;;;;;4.87;4.40;;;12.50;86.50;;;;;;5011518;28;20389;-74
2021/09/19 04:34:48;;;;;;;5.22;4.28;;;12.40;87.00;;;;;;5002203;28;20418;-74
2021/09/19 04:37:14;;;;;;;4.63;4.22;;;12.30;92.50;;;;;;4994190;28;20472;-75
2021/09/19 04:39:40;;;;;;;4.90;4.40;;;12.40;90.10;;;;;;4993434;28;20390;-75
2021/09/19 04:42:07;;;;;;;5.60;4.40;;;12.50;87.90;;;;;;5001600;28;20389;-72
2021/09/19 04:44:33;;;;;;;5.45;4.45;;;12.60;83.90;;;;;;5012472;28;20426;-75
2021/09/19 04:46:58;;;;;;;4.60;4.20;;;12.60;84.10;;;;;;5012224;28;20444;-74
2021/09/19 04:49:24;;;;;;;6.10;4.00;;;12.40;85.50;;;;;;5012161;28;20404;-75
2021/09/19 04:51:49;;;;;;;6.10;4.30;;;12.30;89.50;;;;;;5012072;28;20388;-75
2021/09/19 04:54:15;;;;;;;6.33;4.30;;;12.20;89.50;;;;;;5012335;28;20413;-74
2021/09/19 04:56:41;;;;;;;4.40;4.00;;;12.00;92.60;;;;;;5010656;28;20405;-75
2021/09/19 04:59:06;;;;;;;4.50;4.10;;;11.90;95.80;;;;;;4994758;28;20877;-75
2021/09/19 05:01:32;;;;;;;7.27;4.90;;;11.90;97.90;;;;;;4991456;28;20875;-74
2021/09/19 05:03:58;;;;;;;7.78;5.22;;;11.90;98.60;;;;;;4992195;28;20386;-75
2021/09/19 05:06:23;;;;;;;5.45;4.72;;;11.90;99.90;;;;;;4992619;28;20391;-75
2021/09/19 05:08:49;;;;;;;7.97;4.90;;;12.10;99.90;;;;;;4990749;28;20481;-75
2021/09/19 05:11:14;;;;;;;7.60;4.25;;;12.40;96.40;;;;;;5008746;28;20895;-76
2021/09/19 05:13:40;;;;;;;4.90;3.90;;;12.50;91.00;;;;;;5011822;28;20384;-76
2021/09/19 05:16:05;;;;;;;6.37;4.13;;;12.50;89.00;;;;;;5012416;28;20388;-76
2021/09/19 05:18:31;;;;;;;5.13;4.63;;;12.40;88.10;;;;;;5012295;28;20390;-77
2021/09/19 05:20:56;;;;;;;5.10;4.70;;;12.30;90.20;;;;;;5017337;28;20449;-76
2021/09/19 05:23:22;;;;;;;4.70;4.30;;;12.30;91.70;;;;;;5005190;28;20795;-76
2021/09/19 05:25:47;;;;;;;5.28;4.78;;;12.30;91.80;;;;;;4992940;28;20780;-75
2021/09/19 05:28:13;;;;;;;5.70;4.68;;;12.40;90.20;;;;;;4990673;28;20391;-76
2021/09/19 05:30:39;;;;;;;8.38;5.03;;;12.40;88.00;;;;;;4996421;28;20405;-76
2021/09/19 05:33:05;;;;;;;4.68;4.28;;;12.30;87.00;;;;;;5010881;28;20444;-75
2021/09/19 05:35:30;;;;;;;5.10;4.47;;;12.40;87.90;;;;;;5012708;28;20447;-75
2021/09/19 05:37:56;;;;;;;4.38;3.97;;;12.30;89.70;;;;;;5011085;28;20432;-75
2021/09/19 05:40:21;;;;;;;4.97;3.80;;;12.60;83.70;;;;;;5011578;28;20480;-77
2021/09/19 05:42:47;;;;;;;5.13;4.30;;;12.80;78.70;;;;;;4997479;28;20398;-76
2021/09/19 05:45:13;;;;;;;6.57;4.30;;;12.90;77.10;;;;;;4991700;28;20395;-77
2021/09/19 05:47:38;;;;;;;5.20;4.70;;;12.80;79.10;;;;;;5000502;28;20407;-76
2021/09/19 05:50:04;;;;;;;5.30;4.63;;;12.70;82.10;;;;;;5011247;28;20435;-76
2021/09/19 05:52:30;;;;;;;5.10;4.60;;;12.70;84.60;;;;;;5011197;28;20898;-75
2021/09/19 05:54:55;;;;;;;5.20;3.85;;;12.70;84.60;;;;;;5011519;28;20511;-76
2021/09/19 05:57:21;;;;;;;7.03;3.93;;;12.90;82.30;;;;;;5011459;28;20381;-76
2021/09/19 05:59:48;;;;;;;4.07;3.78;;;13.00;79.30;;;;;;5012242;28;20847;-77
2021/09/19 06:02:13;;;;;;;4.20;3.80;;;13.20;77.90;;;;;;5004191;28;20568;-77
2021/09/19 06:04:39;;;;;;;4.93;3.77;;;13.30;73.60;;;;;;4992901;28;20422;-77
2021/09/19 06:07:04;;;;;;;5.67;4.20;;;13.40;71.70;;;;;;4992513;28;20394;-75
2021/09/19 06:09:30;;;;;;;4.40;4.00;;;13.40;73.00;;;;;;4991306;28;20429;-76
2021/09/19 06:11:56;;;;;;;4.38;3.97;;;13.50;72.10;;;;;;4991431;28;20391;-76
2021/09/19 06:14:21;;;;;;;6.15;4.15;;;13.80;66.00;;;;;;4991550;28;20406;-76
2021/09/19 06:16:47;;;;;;;5.20;3.95;;;13.80;65.00;;;;;;5007184;28;20396;-74
2021/09/19 06:19:12;;;;;;;4.83;4.40;;;13.70;64.80;;;;;;5010728;28;20397;-77
2021/09/19 06:21:38;;;;;;;7.80;4.50;;;13.60;66.20;;;;;;5021339;28;20440;-75
2021/09/19 06:24:03;;;;;;;4.37;3.97;;;13.60;66.40;;;;;;5030366;28;20876;-76
2021/09/19 06:26:29;;;;;;;4.80;4.10;;;13.40;69.30;;;;;;5030552;28;20479;-75
2021/09/19 06:28:55;;;;;;;6.70;4.50;;;13.30;72.50;;;;;;5024188;28;20404;-75
2021/09/19 06:31:22;;;;;;;4.72;4.10;;;13.50;72.50;;;;;;5002065;28;20388;-75
2021/09/19 06:33:48;;;;;;;5.20;4.70;;;13.70;67.20;;;;;;5010715;28;20389;-74
2021/09/19 06:36:13;;;;;;;8.35;4.97;;;13.90;63.70;;;;;;5011427;28;20756;-74
2021/09/19 06:38:39;;;;;;;5.75;5.15;;;13.80;63.80;;;;;;5011349;28;20427;-76
2021/09/19 06:41:05;;;;;;;5.30;4.80;;;13.90;64.30;;;;;;5014314;28;20898;-74
2021/09/19 06:43:30;;;;;;;4.97;4.57;;;14.00;62.70;;;;;;5016905;28;20407;-73
2021/09/19 06:45:56;;;;;;;5.13;4.47;;;14.20;60.70;;;;;;5015245;28;20399;-75
2021/09/19 06:48:21;;;;;;;5.30;4.70;;;14.30;59.50;;;;;;5011429;28;20403;-75
2021/09/19 06:50:47;;;;;;;6.32;4.38;;;14.40;57.90;;;;;;5014550;28;20389;-75
2021/09/19 06:53:12;;;;;;;7.30;4.40;;;14.30;57.90;;;;;;5014254;28;20420;-75
2021/09/19 06:55:38;;;;;;;6.97;5.13;;;14.30;58.40;;;;;;5012432;28;20766;-76
2021/09/19 06:58:03;;;;;;;5.10;4.27;;;14.30;59.90;;;;;;5010054;28;20902;-76
2021/09/19 07:00:29;;;;;;;5.03;4.50;;;14.40;59.40;;;;;;4998724;28;20403;-77
2021/09/19 07:02:55;;;;;;;6.87;4.90;;;14.50;59.40;;;;;;5011877;28;20865;-77
2021/09/19 07:05:21;;;;;;;5.30;4.80;;;14.80;57.10;;;;;;5006517;28;20422;-76
2021/09/19 07:07:46;;;;;;;4.40;4.10;;;14.90;56.80;;;;;;5008948;28;20592;-74
2021/09/19 07:10:12;;;;;;;5.53;4.83;;;15.00;56.00;;;;;;5005955;28;20407;-77
2021/09/19 07:12:38;;;;;;;7.35;4.93;;;15.10;56.10;;;;;;5003619;28;20904;-76
2021/09/19 07:15:06;;;;;;;5.80;4.90;;;15.30;53.70;;;;;;5015977;28;20412;-77
2021/09/19 07:17:32;;;;;;;5.00;4.40;;;15.50;51.00;;;;;;4995206;28;20390;-76
2021/09/19 07:19:59;;;;;;;6.80;4.55;;;15.70;48.40;;;;;;4997007;28;20430;-76
2021/09/19 07:22:25;;;;;;;7.78;5.10;;;15.70;47.80;;;;;;5023984;28;20956;-76
2021/09/19 07:24:51;;;;;;;5.25;4.75;;;15.80;47.90;;;;;;5015143;28;20483;-75
2021/09/19 07:27:17;;;;;;;5.35;4.55;;;15.80;48.10;;;;;;5018905;28;20944;-76
2021/09/19 07:29:42;;;;;;;5.80;4.93;;;15.80;47.90;;;;;;5014194;28;20396;-76
2021/09/19 07:32:12;;;;;;;5.30;4.70;;;15.80;48.20;;;;;;4997683;28;20442;-77
2021/09/19 07:34:38;;;;;;;7.93;5.10;;;15.90;48.00;;;;;;5002720;28;20422;-77
2021/09/19 07:37:05;;;;;;;7.60;4.50;;;15.80;49.10;;;;;;5011253;28;20411;-76
2021/09/19 07:39:31;;;;;;;5.72;4.90;;;15.90;50.00;;;;;;5010170;28;20393;-77
2021/09/19 07:41:57;;;;;;;4.77;4.30;;;16.00;48.30;;;;;;5014361;28;20397;-77
2021/09/19 07:44:23;;;;;;;5.90;4.70;;;16.20;48.70;;;;;;5003483;28;20768;-77
2021/09/19 07:46:50;;;;;;;6.00;4.70;;;16.20;48.80;;;;;;4996851;28;20476;-77
2021/09/19 07:49:17;;;;;;;5.28;4.80;;;16.40;46.80;;;;;;5008807;28;20420;-76
2021/09/19 07:51:43;;;;;;;4.72;4.30;;;16.40;46.90;;;;;;4999001;28;20394;-77
2021/09/19 07:54:09;;;;;;;4.90;4.40;;;16.60;46.10;;;;;;5000767;28;20485;-77
2021/09/19 07:56:34;;;;;;;6.77;4.33;;;16.80;44.80;;;;;;4996860;28;20510;-76
2021/09/19 07:59:00;;;;;;;3.80;3.50;;;17.10;43.50;;;;;;4996228;28;20398;-76
2021/09/19 08:01:25;;;;;;;4.93;4.13;;;17.30;42.70;;;;;;5003098;28;20411;-76
2021/09/19 08:03:51;;;;;;;4.10;3.70;;;17.20;42.40;;;;;;5007463;28;20422;-77
2021/09/19 08:06:18;;;;;;;3.50;3.30;;;17.20;41.50;;;;;;5004204;28;20396;-77
2021/09/19 08:08:43;;;;;;;3.78;3.47;;;17.30;41.70;;;;;;5007181;28;20508;-75
2021/09/19 08:11:09;;;;;;;3.40;3.10;;;17.30;42.00;;;;;;5013446;28;20440;-77
2021/09/19 08:13:35;;;;;;;3.60;3.30;;;17.40;42.10;;;;;;5012946;28;20392;-76
2021/09/19 08:16:01;;;;;;;4.23;3.50;;;17.60;40.30;;;;;;5007199;28;20408;-77
2021/09/19 08:18:26;;;;;;;4.40;3.35;;;17.80;40.30;;;;;;5010352;28;20402;-77
2021/09/19 08:20:52;;;;;;;4.10;3.40;;;18.00;39.30;;;;;;5011038;28;20476;-76
2021/09/19 08:23:18;;;;;;;3.60;3.30;;;18.20;38.10;;;;;;5004605;28;20471;-76
2021/09/19 08:25:43;;;;;;;4.20;2.90;;;18.20;38.30;;;;;;5013931;28;20381;-77
2021/09/19 08:28:09;;;;;;;3.40;3.10;;;18.20;37.30;;;;;;5007608;28;20458;-76
2021/09/19 08:30:35;;;;;;;2.67;2.47;;;18.20;36.60;;;;;;5014741;28;20401;-76
2021/09/19 08:33:00;;;;;;;3.95;3.00;;;18.40;35.70;;;;;;5012845;28;20406;-77
2021/09/19 08:35:26;;;;;;;5.40;3.30;;;18.50;35.40;;;;;;5000274;28;20441;-77
2021/09/19 08:37:52;;;;;;;3.53;3.07;;;18.70;34.60;;;;;;5005660;28;20396;-76
2021/09/19 08:40:17;;;;;;;4.93;3.23;;;18.70;34.10;;;;;;5002468;28;20401;-76
2021/09/19 08:42:43;;;;;;;3.10;2.90;;;18.80;33.90;;;;;;5000443;28;20390;-76
2021/09/19 08:45:10;;;;;;;3.17;2.97;;;18.80;33.90;;;;;;5004497;28;20443;-75
2021/09/19 08:47:36;;;;;;;3.50;2.50;;;19.00;33.80;;;;;;5001863;28;20397;-77
2021/09/19 08:50:09;;;;;;;3.93;3.53;;;19.20;32.30;;;;;;5016771;28;20410;-75
2021/09/19 08:52:34;;;;;;;3.10;2.90;;;19.30;32.60;;;;;;5014191;28;20404;-76
2021/09/19 08:55:00;;;;;;;2.90;2.70;;;19.30;31.70;;;;;;5003354;28;20418;-76
2021/09/19 08:57:26;;;;;;;3.70;3.10;;;19.30;31.30;;;;;;5012398;28;20422;-77
2021/09/19 08:59:53;;;;;;;2.80;2.60;;;19.40;32.30;;;;;;5001875;28;20434;-74
2021/09/19 09:02:21;;;;;;;2.80;2.60;;;19.40;30.60;;;;;;5012113;28;20439;-75
2021/09/19 09:04:52;;;;;;;2.80;2.60;;;19.40;30.10;;;;;;5013169;28;20479;-75
2021/09/19 09:07:18;;;;;;;2.80;2.60;;;19.60;30.40;;;;;;5004180;28;20408;-75
2021/09/19 09:09:57;;;;;;;4.07;2.70;;;19.60;29.10;;;;;;5002298;28;20391;-76
2021/09/19 09:12:24;;;;;;;3.70;2.70;;;19.50;29.50;;;;;;5004695;28;20556;-76
2021/09/19 09:14:54;;;;;;;4.05;2.67;;;19.60;28.90;;;;;;5017205;28;20405;-77
2021/09/19 09:17:26;;;;;;;2.40;2.30;;;19.70;29.00;;;;;;5003189;28;20432;-77
2021/09/19 09:19:54;;;;;;;6.30;2.60;;;19.80;29.30;;;;;;4999924;28;20907;-76
2021/09/19 09:22:24;;;;;;;3.88;2.10;;;20.00;29.20;;;;;;5025935;28;20383;-77
2021/09/19 09:25:12;;;;;;;2.65;2.45;;;20.20;27.30;;;;;;5010929;28;21049;-73
2021/09/19 09:27:42;;;;;;;2.78;2.58;;;20.60;26.20;;;;;;5012053;28;20466;-76
2021/09/19 09:30:19;;;;;;;4.28;2.80;;;20.90;26.20;;;;;;5001002;28;20761;-77
2021/09/19 09:33:02;;;;;;;2.67;2.47;;;21.20;25.10;;;;;;5005974;28;20487;-77
2021/09/19 09:35:36;;;;;;;4.20;2.70;;;21.50;23.90;;;;;;5011737;28;20437;-77
2021/09/19 09:38:23;;;;;;;2.60;2.50;;;21.70;22.30;;;;;;4999262;28;20883;-77
2021/09/19 09:40:50;;;;;;;3.23;2.40;;;21.50;22.40;;;;;;5010366;28;20455;-76
2021/09/19 09:43:17;;;;;;;2.70;2.50;;;21.30;23.10;;;;;;5012483;28;20423;-77
2021/09/19 09:45:45;;;;;;;2.50;2.30;;;21.10;22.90;;;;;;5008007;28;20750;-76
2021/09/19 09:48:29;;;;;;;4.40;2.70;;;21.00;23.30;;;;;;5007425;28;20399;-75
2021/09/19 09:50:56;;;;;;;4.20;2.40;;;21.20;22.50;;;;;;5000193;28;20620;-77
2021/09/19 09:53:22;;;;;;;7.55;6.85;;;21.60;22.50;;;;;;5012172;28;20407;-74
2021/09/19 09:55:49;;;;;;;2.78;2.63;;;21.80;21.80;;;;;;5007776;28;20440;-76
2021/09/19 09:58:19;;;;;;;2.92;2.72;;;22.10;21.00;;;;;;5012912;28;20400;-75
2021/09/19 10:00:47;;;;;;;2.70;2.50;;;22.10;21.90;;;;;;5007795;28;20405;-74
2021/09/19 10:03:13;;;;;;;2.60;2.20;;;22.20;21.50;;;;;;4997519;28;20436;-75
2021/09/19 10:05:40;;;;;;;3.70;3.40;;;22.40;21.10;;;;;;5003746;28;20424;-73
2021/09/19 10:08:05;;;;;;;2.88;2.28;;;22.20;21.00;;;;;;4997882;28;20400;-75
2021/09/19 10:10:39;;;;;;;2.90;2.70;;;22.30;20.10;;;;;;5006280;28;20424;-76
2021/09/19 10:13:05;;;;;;;3.85;2.70;;;21.90;20.50;;;;;;5007725;28;20493;-76
2021/09/19 10:15:31;;;;;;;3.80;3.50;;;21.70;20.70;;;;;;5006565;28;20417;-76
2021/09/19 10:17:57;;;;;;;3.70;3.20;;;21.70;21.50;;;;;;5002106;28;20410;-76
2021/09/19 10:20:26;;;;;;;3.25;2.92;;;21.90;21.60;;;;;;5004352;28;20882;-75
2021/09/19 10:23:01;;;;;;;3.70;2.80;;;22.20;21.60;;;;;;5010320;28;20781;-76
2021/09/19 10:25:35;;;;;;;3.00;2.70;;;22.50;21.10;;;;;;4996383;28;20879;-76
2021/09/19 10:28:19;;;;;;;2.88;2.67;;;22.60;19.10;;;;;;4998679;28;21108;-77
2021/09/19 10:31:07;;;;;;;3.50;2.67;;;22.70;18.90;;;;;;5008266;28;20444;-77
2021/09/19 10:33:45;;;;;;;5.43;2.90;;;22.80;19.20;;;;;;5011810;28;20416;-76
2021/09/19 10:36:28;;;;;;;3.08;2.88;;;22.70;19.40;;;;;;5014755;28;20404;-76
2021/09/19 10:39:20;;;;;;;3.67;2.80;;;22.40;19.90;;;;;;5018811;28;20878;-76
2021/09/19 10:42:03;;;;;;;3.50;3.30;;;22.30;19.60;;;;;;5010021;28;20393;-77
2021/09/19 10:44:59;;;;;;;5.05;3.70;;;22.30;19.90;;;;;;5020593;28;20849;-76
2021/09/19 10:47:25;;;;;;;5.35;3.40;;;22.40;20.00;;;;;;5023982;28;20393;-76
2021/09/19 10:50:11;;;;;;;3.80;3.50;;;22.40;19.60;;;;;;5019897;28;20400;-77
2021/09/19 10:52:44;;;;;;;3.60;3.30;;;22.50;18.80;;;;;;5014201;28;20421;-76
2021/09/19 10:55:50;;;;;;;3.70;3.40;;;22.50;18.90;;;;;;5013994;28;20473;-77
2021/09/19 10:58:30;;;;;;;3.50;3.30;;;22.40;19.30;;;;;;4985565;28;20422;-77
2021/09/19 11:01:19;;;;;;;4.00;3.70;;;22.40;20.00;;;;;;5010029;28;20413;-77
2021/09/19 11:03:45;;;;;;;3.25;2.95;;;22.20;20.00;;;;;;5008753;28;20436;-77
2021/09/19 11:06:31;;;;;;;3.90;3.60;;;22.00;20.00;;;;;;5016708;28;20376;-76
2021/09/19 11:09:00;;;;;;;3.87;3.30;;;21.80;20.50;;;;;;5009867;28;20402;-78
2021/09/19 11:11:27;;;;;;;3.10;2.80;;;21.70;20.40;;;;;;5009816;28;20426;-78
2021/09/19 11:14:03;;;;;;;3.30;3.00;;;21.60;20.50;;;;;;4998741;28;20403;-77
2021/09/19 11:16:34;;;;;;;4.10;3.10;;;21.60;20.70;;;;;;4997420;28;20411;-76
2021/09/19 11:19:05;;;;;;;4.05;3.70;;;21.60;20.80;;;;;;5011496;28;20433;-78
2021/09/19 11:21:38;;;;;;;3.25;2.95;;;21.80;21.30;;;;;;5018674;28;20399;-77
2021/09/19 11:24:11;;;;;;;4.40;4.00;;;21.80;20.10;;;;;;5010841;28;20414;-78
2021/09/19 11:26:45;;;;;;;4.43;3.60;;;21.80;20.50;;;;;;5011558;28;20410;-78
2021/09/19 11:29:12;;;;;;;4.28;3.88;;;21.80;20.10;;;;;;5004939;28;20474;-77
2021/09/19 11:31:40;;;;;;;3.30;3.10;;;21.90;20.60;;;;;;5011898;28;20434;-79
2021/09/19 11:34:16;;;;;;;4.40;3.38;;;22.00;20.30;;;;;;5001465;28;20410;-77
2021/09/19 11:36:53;;;;;;;4.18;3.78;;;22.10;19.60;;;;;;5005875;28;20487;-77
2021/09/19 11:39:20;;;;;;;4.20;3.10;;;22.20;19.90;;;;;;5019675;28;20404;-77
2021/09/19 11:41:47;;;;;;;3.60;3.40;;;22.40;19.60;;;;;;5021097;28;20397;-78
2021/09/19 11:44:14;;;;;;;3.58;3.28;;;22.60;19.60;;;;;;5023579;28;20491;-76
2021/09/19 11:46:46;;;;;;;4.40;4.00;;;22.50;19.90;;;;;;5007041;28;20397;-78
2021/09/19 11:49:12;;;;;;;4.32;3.92;;;22.40;19.30;;;;;;5020550;28;20408;-79
2021/09/19 11:51:40;;;;;;;4.32;3.92;;;22.20;19.50;;;;;;5014569;28;20405;-78
2021/09/19 11:54:05;;;;;;;3.80;3.45;;;22.10;18.90;;;;;;5015306;28;20511;-76
2021/09/19 11:56:32;;;;;;;9.00;4.03;;;22.20;19.00;;;;;;5009633;28;20421;-78
2021/09/19 11:58:58;;;;;;;4.95;4.45;;;22.30;19.10;;;;;;5007538;28;20425;-79
2021/09/19 12:01:26;;;;;;;7.10;4.70;;;22.40;19.80;;;;;;5002277;28;20395;-77
2021/09/19 12:03:52;;;;;;;6.65;4.60;;;22.40;20.80;;;;;;5003805;28;20407;-80
2021/09/19 12:06:18;;;;;;;4.90;4.40;;;22.20;21.80;;;;;;5005457;28;20487;-79
2021/09/19 12:08:43;;;;;;;6.18;4.85;;;22.40;21.90;;;;;;5016813;28;20424;-80
2021/09/19 12:11:10;;;;;;;5.65;5.15;;;22.30;22.10;;;;;;5015965;28;20908;-76
2021/09/19 12:13:37;;;;;;;6.75;5.45;;;22.20;22.80;;;;;;5014675;28;20421;-78
2021/09/19 12:16:09;;;;;;;6.15;5.53;;;22.10;22.30;;;;;;5017279;28;20443;-77
2021/09/19 12:18:40;;;;;;;5.93;5.40;;;21.90;23.80;;;;;;5003924;28;20405;-77
2021/09/19 12:21:14;;;;;;;5.00;4.50;;;22.00;22.10;;;;;;5007039;28;20383;-78
2021/09/19 12:23:43;;;;;;;5.25;4.75;;;22.20;21.30;;;;;;5002545;28;20766;-79
2021/09/19 12:26:19;;;;;;;6.57;4.55;;;22.30;21.50;;;;;;4998993;28;20456;-80
2021/09/19 12:28:46;;;;;;;6.22;4.60;;;22.60;19.00;;;;;;5012304;28;20396;-78
2021/09/19 12:31:13;;;;;;;4.65;4.10;;;22.70;19.50;;;;;;5018556;28;20393;-79
2021/09/19 12:33:55;;;;;;;5.60;5.00;;;23.00;18.00;;;;;;5018318;28;20397;-78
2021/09/19 12:36:22;;;;;;;4.65;4.10;;;23.20;17.50;;;;;;5003785;28;20402;-79
2021/09/19 12:38:48;;;;;;;5.88;4.50;;;23.20;17.00;;;;;;4999743;28;20448;-79
2021/09/19 12:41:14;;;;;;;6.47;5.87;;;23.30;16.50;;;;;;5006075;28;20623;-79
2021/09/19 12:43:42;;;;;;;8.77;7.05;;;23.40;17.40;;;;;;5027582;28;20404;-78
2021/09/19 12:46:12;;;;;;;8.10;6.10;;;23.70;16.30;;;;;;5022812;28;20511;-79
2021/09/19 12:48:37;;;;;;;5.88;5.15;;;24.00;16.30;;;;;;5020951;28;20476;-78
2021/09/19 12:51:04;;;;;;;6.50;5.70;;;23.90;16.70;;;;;;5016933;28;20398;-79